Airport ID:KCCB
Update Time (UTC):18/09/2018 18:04
Wind Speed (Knots):3
Wind Direction (Magnetic):200
Temperature (°C):25.9
Dew Point (°C):1.5
Humidity (%):20.2
Altimeter (inHg):29.91
Density Altitude (Feet):03100
Visibility (Miles):10
Clouds (Hundreds of feet):CLR
Present Weather:
METAR:METAR KCCB 181800Z AUTO 21004KT 10SM CLR 26/01 A2991 RMK AO2

The data displayed is for advisory purposes only and is not to be used for flight planning or operations.

This page is not automatically refreshed. Reload the page to see current data.